< < Back
Terminal Aerodrome Forecast


Current Version              Previous Versions:   1  2  3  4  5  6  7  8  9  

Terminal Aerodrome Forecast

737
FTUS42 KTAE 240521
TAFVLD
TAF
KVLD 240521Z 2406/2506 10009KT P6SM FEW050
     FM240900 08006KT P6SM OVC020
     FM241300 10010KT P6SM BKN035=



Latest METAR

676
SAUS70 KWBC 241700 RRA
MTRVLD
METAR KVLD 241653Z 13008KT 10SM FEW045 31/17 A3026 RMK AO2 SLP253
T03060167


USA.gov is the U.S. government's official web portal to all federal, state and local government web resources and services.